Home   Weather   USA   Austin   Past weeks
Flag for USA

Past Weather in Austin, Texas, USA — August 2018

Currently: 71 °F. Mild. (Weather station: Camp Mabry / Austin City, USA). See more current weather

August 2018 Weather in Austin — Graph

°F

High & Low Weather Summary for August 2018

 TemperatureHumidityPressure
High104 °F (Aug 17, 4:51 pm)88% (Aug 4, 6:51 am)30.14 "Hg (Aug 4, 6:51 am)
Low71 °F (Aug 2, 6:51 am)18% (Aug 1, 4:51 pm)29.67 "Hg (Aug 2, 1:51 pm)
Average87 °F55%29.98 "Hg
* Reported Aug 1 12:51 am — Aug 31 11:51 pm, Austin. Weather by CustomWeather, © 2023

Note: Actual official high and low records may vary slightly from our data, if they occured in-between our weather recording intervals... More about our weather records

Austin Weather History for August 1, 2018

Scroll right to see more
 ConditionsComfort  
Time TempWeatherWind HumidityBarometerVisibility
12:51 am
Wed, Aug 1
80 °FClear.5 mph71%29.98 "Hg10 mi
1:51 am80 °FClear.No wind71%29.97 "Hg10 mi
2:51 am77 °FClear.No wind79%29.98 "Hg10 mi
3:51 am76 °FClear.No wind82%29.99 "Hg10 mi
4:51 am77 °FClear.3 mph62%29.98 "Hg10 mi
5:51 am76 °FClear.3 mph52%29.98 "Hg10 mi
6:51 am72 °FSunny.No wind64%29.99 "Hg10 mi
7:51 am77 °FSunny.No wind50%30.00 "Hg10 mi
8:51 am81 °FSunny.5 mph45%30.01 "Hg10 mi
9:51 am85 °FSunny.6 mph40%30.03 "Hg10 mi
10:51 am88 °FSunny.6 mph35%30.02 "Hg10 mi
11:51 am92 °FSunny.7 mph30%30.01 "Hg10 mi
12:51 pm94 °FPassing clouds.6 mph28%29.98 "Hg10 mi
1:51 pm95 °FSunny.3 mph25%29.96 "Hg10 mi
2:51 pm98 °FSunny.7 mph22%29.93 "Hg10 mi
3:51 pm98 °FSunny.7 mph21%29.92 "Hg10 mi
4:51 pm99 °FSunny.6 mph18%29.90 "Hg10 mi
5:51 pm97 °FSunny.7 mph19%29.90 "Hg10 mi
6:51 pm96 °FSunny.5 mph20%29.89 "Hg10 mi
7:51 pm93 °FSunny.5 mph20%29.90 "Hg10 mi
8:51 pm89 °FClear.3 mph24%29.91 "Hg10 mi
9:51 pm86 °FClear.No wind28%29.93 "Hg10 mi
10:51 pm84 °FClear.No wind31%29.95 "Hg10 mi
11:51 pm79 °FClear.No wind39%29.96 "Hg10 mi
Weather by CustomWeather, © 2023

See weather overview